sensor_id;sensor_type;location;lat;lon;timestamp;temperature;humidity
19813;DHT22;10066;48.108;11.448;2023-01-24T00:01:46;0.90;99.90
19813;DHT22;10066;48.108;11.448;2023-01-24T00:04:13;0.90;99.90
19813;DHT22;10066;48.108;11.448;2023-01-24T00:06:40;1.00;99.90
19813;DHT22;10066;48.108;11.448;2023-01-24T00:09:07;1.00;99.90
19813;DHT22;10066;48.108;11.448;2023-01-24T00:11:34;1.00;99.90
19813;DHT22;10066;48.108;11.448;2023-01-24T00:14:01;1.00;99.90
19813;DHT22;10066;48.108;11.448;2023-01-24T00:16:29;1.00;99.90
19813;DHT22;10066;48.108;11.448;2023-01-24T00:18:56;1.00;99.90
19813;DHT22;10066;48.108;11.448;2023-01-24T00:21:24;1.00;99.90
19813;DHT22;10066;48.108;11.448;2023-01-24T00:23:53;1.00;99.90
19813;DHT22;10066;48.108;11.448;2023-01-24T00:26:22;1.10;99.90
19813;DHT22;10066;48.108;11.448;2023-01-24T00:28:49;1.00;99.90
19813;DHT22;10066;48.108;11.448;2023-01-24T00:31:16;1.00;99.90
19813;DHT22;10066;48.108;11.448;2023-01-24T00:33:45;1.00;99.90
19813;DHT22;10066;48.108;11.448;2023-01-24T00:36:12;1.00;99.90
19813;DHT22;10066;48.108;11.448;2023-01-24T00:38:39;1.00;99.90
19813;DHT22;10066;48.108;11.448;2023-01-24T00:41:06;1.00;99.90
19813;DHT22;10066;48.108;11.448;2023-01-24T00:43:33;1.00;99.90
19813;DHT22;10066;48.108;11.448;2023-01-24T00:46:00;1.00;99.90
19813;DHT22;10066;48.108;11.448;2023-01-24T00:48:27;1.00;99.90
19813;DHT22;10066;48.108;11.448;2023-01-24T00:50:56;1.00;99.90
19813;DHT22;10066;48.108;11.448;2023-01-24T00:53:23;1.00;99.90
19813;DHT22;10066;48.108;11.448;2023-01-24T00:55:52;1.10;99.90
19813;DHT22;10066;48.108;11.448;2023-01-24T00:58:20;1.10;99.90
19813;DHT22;10066;48.108;11.448;2023-01-24T01:00:47;1.10;99.90
19813;DHT22;10066;48.108;11.448;2023-01-24T01:03:16;1.00;99.90
19813;DHT22;10066;48.108;11.448;2023-01-24T01:05:46;1.00;99.90
19813;DHT22;10066;48.108;11.448;2023-01-24T01:08:14;1.00;99.90
19813;DHT22;10066;48.108;11.448;2023-01-24T01:10:41;1.00;99.90
19813;DHT22;10066;48.108;11.448;2023-01-24T01:13:09;0.90;99.90
19813;DHT22;10066;48.108;11.448;2023-01-24T01:15:38;0.90;99.90
19813;DHT22;10066;48.108;11.448;2023-01-24T01:18:04;0.90;99.90
19813;DHT22;10066;48.108;11.448;2023-01-24T01:20:31;0.90;99.90
19813;DHT22;10066;48.108;11.448;2023-01-24T01:22:59;0.90;99.90
19813;DHT22;10066;48.108;11.448;2023-01-24T01:25:29;0.90;99.90
19813;DHT22;10066;48.108;11.448;2023-01-24T01:27:56;0.90;99.90
19813;DHT22;10066;48.108;11.448;2023-01-24T01:30:23;0.90;99.90
19813;DHT22;10066;48.108;11.448;2023-01-24T01:32:53;0.90;99.90
19813;DHT22;10066;48.108;11.448;2023-01-24T01:35:20;0.90;99.90
19813;DHT22;10066;48.108;11.448;2023-01-24T01:37:47;0.90;99.90
19813;DHT22;10066;48.108;11.448;2023-01-24T01:40:15;0.80;99.90
19813;DHT22;10066;48.108;11.448;2023-01-24T01:42:49;0.80;99.90
19813;DHT22;10066;48.108;11.448;2023-01-24T01:45:31;0.90;99.90
19813;DHT22;10066;48.108;11.448;2023-01-24T01:48:00;0.90;99.90
19813;DHT22;10066;48.108;11.448;2023-01-24T01:50:31;1.00;99.90
19813;DHT22;10066;48.108;11.448;2023-01-24T01:52:59;1.00;99.90
19813;DHT22;10066;48.108;11.448;2023-01-24T01:55:29;1.00;99.90
19813;DHT22;10066;48.108;11.448;2023-01-24T01:58:00;1.10;99.90
19813;DHT22;10066;48.108;11.448;2023-01-24T02:00:27;1.10;99.90
19813;DHT22;10066;48.108;11.448;2023-01-24T02:02:58;1.10;99.90
19813;DHT22;10066;48.108;11.448;2023-01-24T02:05:45;1.20;99.90
19813;DHT22;10066;48.108;11.448;2023-01-24T02:08:16;1.10;99.90
19813;DHT22;10066;48.108;11.448;2023-01-24T02:10:45;1.00;99.90
19813;DHT22;10066;48.108;11.448;2023-01-24T02:13:32;1.00;99.90
19813;DHT22;10066;48.108;11.448;2023-01-24T02:16:00;1.00;99.90
19813;DHT22;10066;48.108;11.448;2023-01-24T02:18:29;1.20;99.90
19813;DHT22;10066;48.108;11.448;2023-01-24T02:20:57;1.20;99.90
19813;DHT22;10066;48.108;11.448;2023-01-24T02:23:30;1.20;99.90
19813;DHT22;10066;48.108;11.448;2023-01-24T02:26:07;1.20;99.90
19813;DHT22;10066;48.108;11.448;2023-01-24T02:28:35;1.10;99.90
19813;DHT22;10066;48.108;11.448;2023-01-24T02:31:03;1.10;99.90
19813;DHT22;10066;48.108;11.448;2023-01-24T02:33:31;1.00;99.90
19813;DHT22;10066;48.108;11.448;2023-01-24T02:36:14;1.00;99.90
19813;DHT22;10066;48.108;11.448;2023-01-24T02:38:44;1.00;99.90
19813;DHT22;10066;48.108;11.448;2023-01-24T02:41:13;1.00;99.90
19813;DHT22;10066;48.108;11.448;2023-01-24T02:43:45;1.00;99.90
19813;DHT22;10066;48.108;11.448;2023-01-24T02:46:15;1.00;99.90
19813;DHT22;10066;48.108;11.448;2023-01-24T02:48:41;1.00;99.90
19813;DHT22;10066;48.108;11.448;2023-01-24T02:51:08;1.00;99.90
19813;DHT22;10066;48.108;11.448;2023-01-24T02:53:52;1.00;99.90
19813;DHT22;10066;48.108;11.448;2023-01-24T02:56:21;1.00;99.90
19813;DHT22;10066;48.108;11.448;2023-01-24T02:59:05;0.90;99.90
19813;DHT22;10066;48.108;11.448;2023-01-24T03:01:32;0.90;99.90
19813;DHT22;10066;48.108;11.448;2023-01-24T03:03:59;1.00;99.90
19813;DHT22;10066;48.108;11.448;2023-01-24T03:06:26;1.00;99.90
19813;DHT22;10066;48.108;11.448;2023-01-24T03:08:53;1.00;99.90
19813;DHT22;10066;48.108;11.448;2023-01-24T03:11:22;1.00;99.90
19813;DHT22;10066;48.108;11.448;2023-01-24T03:13:49;1.00;99.90
19813;DHT22;10066;48.108;11.448;2023-01-24T03:16:33;1.10;99.90
19813;DHT22;10066;48.108;11.448;2023-01-24T03:19:18;1.10;99.90
19813;DHT22;10066;48.108;11.448;2023-01-24T03:22:02;1.10;99.90
19813;DHT22;10066;48.108;11.448;2023-01-24T03:24:46;1.10;99.90
19813;DHT22;10066;48.108;11.448;2023-01-24T03:27:32;1.10;99.90
19813;DHT22;10066;48.108;11.448;2023-01-24T03:30:16;1.00;99.90
19813;DHT22;10066;48.108;11.448;2023-01-24T03:33:02;1.00;99.90
19813;DHT22;10066;48.108;11.448;2023-01-24T03:35:48;1.00;99.90
19813;DHT22;10066;48.108;11.448;2023-01-24T03:38:19;1.00;99.90
19813;DHT22;10066;48.108;11.448;2023-01-24T03:41:04;1.10;99.90
19813;DHT22;10066;48.108;11.448;2023-01-24T03:43:32;1.10;99.90
19813;DHT22;10066;48.108;11.448;2023-01-24T03:45:59;1.10;99.90
19813;DHT22;10066;48.108;11.448;2023-01-24T03:48:26;1.10;99.90
19813;DHT22;10066;48.108;11.448;2023-01-24T03:51:00;1.20;99.90
19813;DHT22;10066;48.108;11.448;2023-01-24T03:53:44;1.20;99.90
19813;DHT22;10066;48.108;11.448;2023-01-24T03:56:11;1.20;99.90
19813;DHT22;10066;48.108;11.448;2023-01-24T03:58:40;1.20;99.90
19813;DHT22;10066;48.108;11.448;2023-01-24T04:01:06;1.20;99.90
19813;DHT22;10066;48.108;11.448;2023-01-24T04:03:33;1.30;99.90
19813;DHT22;10066;48.108;11.448;2023-01-24T04:06:00;1.30;99.90
19813;DHT22;10066;48.108;11.448;2023-01-24T04:08:27;1.30;99.90
19813;DHT22;10066;48.108;11.448;2023-01-24T04:10:55;1.20;99.90
19813;DHT22;10066;48.108;11.448;2023-01-24T04:13:23;1.30;99.90
19813;DHT22;10066;48.108;11.448;2023-01-24T04:15:51;1.20;99.90
19813;DHT22;10066;48.108;11.448;2023-01-24T04:18:18;1.10;99.90
19813;DHT22;10066;48.108;11.448;2023-01-24T04:20:45;1.10;99.90
19813;DHT22;10066;48.108;11.448;2023-01-24T04:23:12;1.10;99.90
19813;DHT22;10066;48.108;11.448;2023-01-24T04:25:38;1.10;99.90
19813;DHT22;10066;48.108;11.448;2023-01-24T04:28:05;1.10;99.90
19813;DHT22;10066;48.108;11.448;2023-01-24T04:30:32;1.00;99.90
19813;DHT22;10066;48.108;11.448;2023-01-24T04:33:00;1.00;99.90
19813;DHT22;10066;48.108;11.448;2023-01-24T04:35:29;1.00;99.90
19813;DHT22;10066;48.108;11.448;2023-01-24T04:37:59;1.00;99.90
19813;DHT22;10066;48.108;11.448;2023-01-24T04:40:26;1.00;99.90
19813;DHT22;10066;48.108;11.448;2023-01-24T04:42:55;1.00;99.90
19813;DHT22;10066;48.108;11.448;2023-01-24T04:45:22;0.90;99.90
19813;DHT22;10066;48.108;11.448;2023-01-24T04:47:48;1.00;99.90
19813;DHT22;10066;48.108;11.448;2023-01-24T04:50:17;1.00;99.90
19813;DHT22;10066;48.108;11.448;2023-01-24T04:52:44;1.00;99.90
19813;DHT22;10066;48.108;11.448;2023-01-24T04:55:11;0.90;99.90
19813;DHT22;10066;48.108;11.448;2023-01-24T04:57:37;0.90;99.90
19813;DHT22;10066;48.108;11.448;2023-01-24T05:00:06;0.90;99.90
19813;DHT22;10066;48.108;11.448;2023-01-24T05:02:34;0.90;99.90
19813;DHT22;10066;48.108;11.448;2023-01-24T05:05:03;0.90;99.90
19813;DHT22;10066;48.108;11.448;2023-01-24T05:07:31;1.00;99.90
19813;DHT22;10066;48.108;11.448;2023-01-24T05:09:58;0.90;99.90
19813;DHT22;10066;48.108;11.448;2023-01-24T05:12:25;1.00;99.90
19813;DHT22;10066;48.108;11.448;2023-01-24T05:14:51;1.00;99.90
19813;DHT22;10066;48.108;11.448;2023-01-24T05:17:18;1.00;99.90
19813;DHT22;10066;48.108;11.448;2023-01-24T05:19:45;1.00;99.90
19813;DHT22;10066;48.108;11.448;2023-01-24T05:22:12;1.00;99.90
19813;DHT22;10066;48.108;11.448;2023-01-24T05:24:40;1.00;99.90
19813;DHT22;10066;48.108;11.448;2023-01-24T05:27:07;1.00;99.90
19813;DHT22;10066;48.108;11.448;2023-01-24T05:29:34;1.10;99.90
19813;DHT22;10066;48.108;11.448;2023-01-24T05:32:01;1.00;99.90
19813;DHT22;10066;48.108;11.448;2023-01-24T05:34:28;1.10;99.90
19813;DHT22;10066;48.108;11.448;2023-01-24T05:36:55;1.10;99.90
19813;DHT22;10066;48.108;11.448;2023-01-24T05:39:22;1.30;99.90
19813;DHT22;10066;48.108;11.448;2023-01-24T05:41:50;1.30;99.90
19813;DHT22;10066;48.108;11.448;2023-01-24T05:44:17;1.30;99.90
19813;DHT22;10066;48.108;11.448;2023-01-24T05:46:44;1.30;99.90
19813;DHT22;10066;48.108;11.448;2023-01-24T05:49:12;1.30;99.90
19813;DHT22;10066;48.108;11.448;2023-01-24T05:51:39;1.30;99.90
19813;DHT22;10066;48.108;11.448;2023-01-24T05:54:06;1.30;99.90
19813;DHT22;10066;48.108;11.448;2023-01-24T05:56:33;1.30;99.90
19813;DHT22;10066;48.108;11.448;2023-01-24T05:59:01;1.30;99.90
19813;DHT22;10066;48.108;11.448;2023-01-24T06:01:29;1.40;99.90
19813;DHT22;10066;48.108;11.448;2023-01-24T06:03:56;1.40;99.90
19813;DHT22;10066;48.108;11.448;2023-01-24T06:06:24;1.40;99.90
19813;DHT22;10066;48.108;11.448;2023-01-24T06:08:51;1.40;99.90
19813;DHT22;10066;48.108;11.448;2023-01-24T06:11:21;1.40;99.90
19813;DHT22;10066;48.108;11.448;2023-01-24T06:13:48;1.40;99.90
19813;DHT22;10066;48.108;11.448;2023-01-24T06:16:18;1.40;99.90
19813;DHT22;10066;48.108;11.448;2023-01-24T06:18:46;1.40;99.90
19813;DHT22;10066;48.108;11.448;2023-01-24T06:21:23;1.40;99.90
19813;DHT22;10066;48.108;11.448;2023-01-24T06:23:55;1.50;99.90
19813;DHT22;10066;48.108;11.448;2023-01-24T06:26:23;1.50;99.90
19813;DHT22;10066;48.108;11.448;2023-01-24T06:28:50;1.50;99.90
19813;DHT22;10066;48.108;11.448;2023-01-24T06:31:26;1.50;99.90
19813;DHT22;10066;48.108;11.448;2023-01-24T06:34:16;1.50;99.90
19813;DHT22;10066;48.108;11.448;2023-01-24T06:36:52;1.50;99.90
19813;DHT22;10066;48.108;11.448;2023-01-24T06:39:22;1.50;99.90
19813;DHT22;10066;48.108;11.448;2023-01-24T06:41:49;1.60;99.90
19813;DHT22;10066;48.108;11.448;2023-01-24T06:44:17;1.50;99.90
19813;DHT22;10066;48.108;11.448;2023-01-24T06:46:46;1.50;99.90
19813;DHT22;10066;48.108;11.448;2023-01-24T06:49:12;1.50;99.90
19813;DHT22;10066;48.108;11.448;2023-01-24T06:51:39;1.40;99.90
19813;DHT22;10066;48.108;11.448;2023-01-24T06:54:06;1.40;99.90
19813;DHT22;10066;48.108;11.448;2023-01-24T06:56:33;1.40;99.90
19813;DHT22;10066;48.108;11.448;2023-01-24T06:59:00;1.40;99.90
19813;DHT22;10066;48.108;11.448;2023-01-24T07:01:27;1.50;99.90
19813;DHT22;10066;48.108;11.448;2023-01-24T07:03:56;1.40;99.90
19813;DHT22;10066;48.108;11.448;2023-01-24T07:06:23;1.40;99.90
19813;DHT22;10066;48.108;11.448;2023-01-24T07:08:50;1.40;99.90
19813;DHT22;10066;48.108;11.448;2023-01-24T07:11:17;1.30;99.90
19813;DHT22;10066;48.108;11.448;2023-01-24T07:13:44;1.30;99.90
19813;DHT22;10066;48.108;11.448;2023-01-24T07:16:11;1.20;99.90
19813;DHT22;10066;48.108;11.448;2023-01-24T07:18:38;1.20;99.90
19813;DHT22;10066;48.108;11.448;2023-01-24T07:21:08;1.20;99.90
19813;DHT22;10066;48.108;11.448;2023-01-24T07:23:37;1.30;99.90
19813;DHT22;10066;48.108;11.448;2023-01-24T07:26:04;1.30;99.90
19813;DHT22;10066;48.108;11.448;2023-01-24T07:28:34;1.30;99.90
19813;DHT22;10066;48.108;11.448;2023-01-24T07:31:01;1.30;99.90
19813;DHT22;10066;48.108;11.448;2023-01-24T07:33:28;1.50;99.90
19813;DHT22;10066;48.108;11.448;2023-01-24T07:35:55;1.60;99.90
19813;DHT22;10066;48.108;11.448;2023-01-24T07:38:24;1.70;99.90
19813;DHT22;10066;48.108;11.448;2023-01-24T07:40:50;1.60;99.90
19813;DHT22;10066;48.108;11.448;2023-01-24T07:43:17;1.60;99.90
19813;DHT22;10066;48.108;11.448;2023-01-24T07:45:46;1.60;99.90
19813;DHT22;10066;48.108;11.448;2023-01-24T07:48:13;1.50;99.90
19813;DHT22;10066;48.108;11.448;2023-01-24T07:50:40;1.50;99.90
19813;DHT22;10066;48.108;11.448;2023-01-24T07:53:06;1.50;99.90
19813;DHT22;10066;48.108;11.448;2023-01-24T07:55:35;1.50;99.90
19813;DHT22;10066;48.108;11.448;2023-01-24T07:58:02;1.50;99.90
19813;DHT22;10066;48.108;11.448;2023-01-24T08:00:30;1.50;99.90
19813;DHT22;10066;48.108;11.448;2023-01-24T08:02:57;1.50;99.90
19813;DHT22;10066;48.108;11.448;2023-01-24T08:05:24;1.50;99.90
19813;DHT22;10066;48.108;11.448;2023-01-24T08:07:50;1.50;99.90
19813;DHT22;10066;48.108;11.448;2023-01-24T08:10:19;1.50;99.90
19813;DHT22;10066;48.108;11.448;2023-01-24T08:12:51;1.50;99.90
19813;DHT22;10066;48.108;11.448;2023-01-24T08:15:18;1.50;99.90
19813;DHT22;10066;48.108;11.448;2023-01-24T08:17:45;1.50;99.90
19813;DHT22;10066;48.108;11.448;2023-01-24T08:20:12;1.50;99.90
19813;DHT22;10066;48.108;11.448;2023-01-24T08:22:39;1.50;99.90
19813;DHT22;10066;48.108;11.448;2023-01-24T08:25:07;1.50;99.90
19813;DHT22;10066;48.108;11.448;2023-01-24T08:27:34;1.60;99.90
19813;DHT22;10066;48.108;11.448;2023-01-24T08:30:04;1.70;99.90
19813;DHT22;10066;48.108;11.448;2023-01-24T08:32:31;1.70;99.90
19813;DHT22;10066;48.108;11.448;2023-01-24T08:34:58;1.70;99.90
19813;DHT22;10066;48.108;11.448;2023-01-24T08:37:25;1.70;99.90
19813;DHT22;10066;48.108;11.448;2023-01-24T08:39:52;1.80;99.90
19813;DHT22;10066;48.108;11.448;2023-01-24T08:42:22;1.80;99.90
19813;DHT22;10066;48.108;11.448;2023-01-24T08:44:49;1.80;99.90
19813;DHT22;10066;48.108;11.448;2023-01-24T08:47:17;1.80;99.90
19813;DHT22;10066;48.108;11.448;2023-01-24T08:49:44;1.80;99.90
19813;DHT22;10066;48.108;11.448;2023-01-24T08:52:11;1.90;99.90
19813;DHT22;10066;48.108;11.448;2023-01-24T08:54:38;1.90;99.90
19813;DHT22;10066;48.108;11.448;2023-01-24T08:57:05;2.00;99.90
19813;DHT22;10066;48.108;11.448;2023-01-24T08:59:33;2.00;99.90
19813;DHT22;10066;48.108;11.448;2023-01-24T09:02:00;2.00;99.90
19813;DHT22;10066;48.108;11.448;2023-01-24T09:04:28;2.00;99.90
19813;DHT22;10066;48.108;11.448;2023-01-24T09:06:55;2.00;99.90
19813;DHT22;10066;48.108;11.448;2023-01-24T09:09:22;2.00;99.90
19813;DHT22;10066;48.108;11.448;2023-01-24T09:11:51;2.10;99.90
19813;DHT22;10066;48.108;11.448;2023-01-24T09:14:18;2.10;99.90
19813;DHT22;10066;48.108;11.448;2023-01-24T09:16:45;2.10;99.90
19813;DHT22;10066;48.108;11.448;2023-01-24T09:19:12;2.10;99.90
19813;DHT22;10066;48.108;11.448;2023-01-24T09:21:40;2.10;99.90
19813;DHT22;10066;48.108;11.448;2023-01-24T09:24:09;2.10;99.90
19813;DHT22;10066;48.108;11.448;2023-01-24T09:26:36;2.10;99.90
19813;DHT22;10066;48.108;11.448;2023-01-24T09:29:05;2.10;99.90
19813;DHT22;10066;48.108;11.448;2023-01-24T09:31:31;2.10;99.90
19813;DHT22;10066;48.108;11.448;2023-01-24T09:33:58;2.20;99.90
19813;DHT22;10066;48.108;11.448;2023-01-24T09:36:26;2.20;99.90
19813;DHT22;10066;48.108;11.448;2023-01-24T09:38:54;2.20;99.90
19813;DHT22;10066;48.108;11.448;2023-01-24T09:41:30;2.30;99.90
19813;DHT22;10066;48.108;11.448;2023-01-24T09:44:00;2.30;99.90
19813;DHT22;10066;48.108;11.448;2023-01-24T09:46:31;2.40;99.90
19813;DHT22;10066;48.108;11.448;2023-01-24T09:49:04;2.40;99.90
19813;DHT22;10066;48.108;11.448;2023-01-24T09:51:39;2.40;99.90
19813;DHT22;10066;48.108;11.448;2023-01-24T09:54:15;2.40;99.90
19813;DHT22;10066;48.108;11.448;2023-01-24T09:56:46;2.40;99.90
19813;DHT22;10066;48.108;11.448;2023-01-24T09:59:20;2.50;99.90
19813;DHT22;10066;48.108;11.448;2023-01-24T10:01:48;2.50;99.90
19813;DHT22;10066;48.108;11.448;2023-01-24T10:04:18;2.40;99.90
19813;DHT22;10066;48.108;11.448;2023-01-24T10:07:05;2.40;99.90
19813;DHT22;10066;48.108;11.448;2023-01-24T10:09:46;2.40;99.90
19813;DHT22;10066;48.108;11.448;2023-01-24T10:12:25;2.50;99.90
19813;DHT22;10066;48.108;11.448;2023-01-24T10:15:06;2.50;99.90
19813;DHT22;10066;48.108;11.448;2023-01-24T10:17:52;2.40;99.90
19813;DHT22;10066;48.108;11.448;2023-01-24T10:20:40;2.40;99.90
19813;DHT22;10066;48.108;11.448;2023-01-24T10:23:12;2.40;99.90
19813;DHT22;10066;48.108;11.448;2023-01-24T10:26:03;2.40;99.90
19813;DHT22;10066;48.108;11.448;2023-01-24T10:28:34;2.30;99.90
19813;DHT22;10066;48.108;11.448;2023-01-24T10:31:05;2.30;99.90
19813;DHT22;10066;48.108;11.448;2023-01-24T10:33:39;2.30;99.90
19813;DHT22;10066;48.108;11.448;2023-01-24T10:36:11;2.30;99.90
19813;DHT22;10066;48.108;11.448;2023-01-24T10:38:41;2.20;99.90
19813;DHT22;10066;48.108;11.448;2023-01-24T10:41:18;2.30;99.90
19813;DHT22;10066;48.108;11.448;2023-01-24T10:43:52;2.20;99.90
19813;DHT22;10066;48.108;11.448;2023-01-24T10:49:31;2.20;99.90
19813;DHT22;10066;48.108;11.448;2023-01-24T10:52:13;2.30;99.90
19813;DHT22;10066;48.108;11.448;2023-01-24T10:54:46;2.40;99.90
19813;DHT22;10066;48.108;11.448;2023-01-24T10:57:35;2.40;99.90
19813;DHT22;10066;48.108;11.448;2023-01-24T11:00:24;2.40;99.90
19813;DHT22;10066;48.108;11.448;2023-01-24T11:02:53;2.30;99.90
19813;DHT22;10066;48.108;11.448;2023-01-24T11:05:21;2.30;99.90
19813;DHT22;10066;48.108;11.448;2023-01-24T11:07:50;2.40;99.90
19813;DHT22;10066;48.108;11.448;2023-01-24T11:10:20;2.40;99.90
19813;DHT22;10066;48.108;11.448;2023-01-24T11:12:51;2.30;99.90
19813;DHT22;10066;48.108;11.448;2023-01-24T11:15:22;2.30;99.90
19813;DHT22;10066;48.108;11.448;2023-01-24T11:17:54;2.30;99.90
19813;DHT22;10066;48.108;11.448;2023-01-24T11:20:27;2.30;99.90
19813;DHT22;10066;48.108;11.448;2023-01-24T11:23:02;2.20;99.90
19813;DHT22;10066;48.108;11.448;2023-01-24T11:25:29;2.30;99.90
19813;DHT22;10066;48.108;11.448;2023-01-24T11:27:57;2.30;99.90
19813;DHT22;10066;48.108;11.448;2023-01-24T11:30:26;2.30;99.90
19813;DHT22;10066;48.108;11.448;2023-01-24T11:33:27;2.30;99.90
19813;DHT22;10066;48.108;11.448;2023-01-24T11:36:02;2.30;99.90
19813;DHT22;10066;48.108;11.448;2023-01-24T11:38:33;2.30;99.90
19813;DHT22;10066;48.108;11.448;2023-01-24T11:41:10;2.30;99.90
19813;DHT22;10066;48.108;11.448;2023-01-24T11:47:05;2.30;99.90
19813;DHT22;10066;48.108;11.448;2023-01-24T11:49:48;2.30;99.90
19813;DHT22;10066;48.108;11.448;2023-01-24T11:52:37;2.30;99.90
19813;DHT22;10066;48.108;11.448;2023-01-24T11:55:13;2.30;99.90
19813;DHT22;10066;48.108;11.448;2023-01-24T11:57:46;2.40;99.90
19813;DHT22;10066;48.108;11.448;2023-01-24T12:00:25;2.40;99.90
19813;DHT22;10066;48.108;11.448;2023-01-24T12:03:18;2.40;99.90
19813;DHT22;10066;48.108;11.448;2023-01-24T12:05:59;2.40;99.90
19813;DHT22;10066;48.108;11.448;2023-01-24T12:08:50;2.40;99.90
19813;DHT22;10066;48.108;11.448;2023-01-24T12:11:24;2.30;99.90
19813;DHT22;10066;48.108;11.448;2023-01-24T12:14:03;2.40;99.90
19813;DHT22;10066;48.108;11.448;2023-01-24T12:16:41;2.40;99.90
19813;DHT22;10066;48.108;11.448;2023-01-24T12:19:34;2.40;99.90
19813;DHT22;10066;48.108;11.448;2023-01-24T12:22:12;2.50;99.90
19813;DHT22;10066;48.108;11.448;2023-01-24T12:24:43;2.50;99.90
19813;DHT22;10066;48.108;11.448;2023-01-24T12:27:15;2.60;99.90
19813;DHT22;10066;48.108;11.448;2023-01-24T12:29:48;2.50;99.90
19813;DHT22;10066;48.108;11.448;2023-01-24T12:32:22;2.50;99.90
19813;DHT22;10066;48.108;11.448;2023-01-24T12:34:56;2.50;99.90
19813;DHT22;10066;48.108;11.448;2023-01-24T12:37:28;2.50;99.90
19813;DHT22;10066;48.108;11.448;2023-01-24T12:40:00;2.50;99.90
19813;DHT22;10066;48.108;11.448;2023-01-24T12:42:44;2.40;99.90
19813;DHT22;10066;48.108;11.448;2023-01-24T12:45:18;2.50;99.90
19813;DHT22;10066;48.108;11.448;2023-01-24T12:47:49;2.40;99.90
19813;DHT22;10066;48.108;11.448;2023-01-24T12:50:24;2.40;99.90
19813;DHT22;10066;48.108;11.448;2023-01-24T12:53:04;2.40;99.90
19813;DHT22;10066;48.108;11.448;2023-01-24T12:55:36;2.40;99.90
19813;DHT22;10066;48.108;11.448;2023-01-24T12:58:10;2.40;99.90
19813;DHT22;10066;48.108;11.448;2023-01-24T13:00:50;2.50;99.90
19813;DHT22;10066;48.108;11.448;2023-01-24T13:03:50;2.40;99.90
19813;DHT22;10066;48.108;11.448;2023-01-24T13:06:27;2.50;99.90
19813;DHT22;10066;48.108;11.448;2023-01-24T13:09:06;2.60;99.90
19813;DHT22;10066;48.108;11.448;2023-01-24T13:11:40;2.60;99.90
19813;DHT22;10066;48.108;11.448;2023-01-24T13:14:15;2.70;99.90
19813;DHT22;10066;48.108;11.448;2023-01-24T13:17:11;2.70;99.90
19813;DHT22;10066;48.108;11.448;2023-01-24T13:19:48;2.70;99.90
19813;DHT22;10066;48.108;11.448;2023-01-24T13:22:33;2.70;99.90
19813;DHT22;10066;48.108;11.448;2023-01-24T13:25:18;2.70;99.90
19813;DHT22;10066;48.108;11.448;2023-01-24T13:27:54;2.70;99.90
19813;DHT22;10066;48.108;11.448;2023-01-24T13:30:35;2.70;99.90
19813;DHT22;10066;48.108;11.448;2023-01-24T13:33:11;2.70;99.90
19813;DHT22;10066;48.108;11.448;2023-01-24T13:35:45;2.70;99.90
19813;DHT22;10066;48.108;11.448;2023-01-24T13:38:22;2.70;99.90
19813;DHT22;10066;48.108;11.448;2023-01-24T13:40:57;2.70;99.90
19813;DHT22;10066;48.108;11.448;2023-01-24T13:43:52;2.70;99.90
19813;DHT22;10066;48.108;11.448;2023-01-24T13:46:57;2.70;99.90
19813;DHT22;10066;48.108;11.448;2023-01-24T13:49:38;2.70;99.90
19813;DHT22;10066;48.108;11.448;2023-01-24T13:52:35;2.70;99.90
19813;DHT22;10066;48.108;11.448;2023-01-24T13:55:04;2.70;99.90
19813;DHT22;10066;48.108;11.448;2023-01-24T13:57:31;2.70;99.90
19813;DHT22;10066;48.108;11.448;2023-01-24T14:00:16;2.70;99.90
19813;DHT22;10066;48.108;11.448;2023-01-24T14:03:01;2.70;99.90
19813;DHT22;10066;48.108;11.448;2023-01-24T14:05:51;2.60;99.90
19813;DHT22;10066;48.108;11.448;2023-01-24T14:08:35;2.70;99.90
19813;DHT22;10066;48.108;11.448;2023-01-24T14:14:00;2.80;99.90
19813;DHT22;10066;48.108;11.448;2023-01-24T14:16:57;2.80;99.90
19813;DHT22;10066;48.108;11.448;2023-01-24T14:19:32;2.80;99.90
19813;DHT22;10066;48.108;11.448;2023-01-24T14:22:14;2.90;99.90
19813;DHT22;10066;48.108;11.448;2023-01-24T14:24:55;2.90;99.90
19813;DHT22;10066;48.108;11.448;2023-01-24T14:27:26;2.90;99.90
19813;DHT22;10066;48.108;11.448;2023-01-24T14:30:00;2.80;99.90
19813;DHT22;10066;48.108;11.448;2023-01-24T14:32:34;2.70;99.90
19813;DHT22;10066;48.108;11.448;2023-01-24T14:35:16;2.70;99.90
19813;DHT22;10066;48.108;11.448;2023-01-24T14:37:45;2.70;99.90
19813;DHT22;10066;48.108;11.448;2023-01-24T14:40:20;2.70;99.90
19813;DHT22;10066;48.108;11.448;2023-01-24T14:42:48;2.60;99.90
19813;DHT22;10066;48.108;11.448;2023-01-24T14:45:17;2.60;99.90
19813;DHT22;10066;48.108;11.448;2023-01-24T14:47:46;2.60;99.90
19813;DHT22;10066;48.108;11.448;2023-01-24T14:50:23;2.50;99.90
19813;DHT22;10066;48.108;11.448;2023-01-24T14:52:52;2.60;99.90
19813;DHT22;10066;48.108;11.448;2023-01-24T14:55:31;2.50;99.90
19813;DHT22;10066;48.108;11.448;2023-01-24T14:58:13;2.50;99.90
19813;DHT22;10066;48.108;11.448;2023-01-24T15:00:40;2.50;99.90
19813;DHT22;10066;48.108;11.448;2023-01-24T15:03:18;2.50;99.90
19813;DHT22;10066;48.108;11.448;2023-01-24T15:06:05;2.50;99.90
19813;DHT22;10066;48.108;11.448;2023-01-24T15:08:33;2.40;99.90
19813;DHT22;10066;48.108;11.448;2023-01-24T15:11:03;2.50;99.90
19813;DHT22;10066;48.108;11.448;2023-01-24T15:13:33;2.30;99.90
19813;DHT22;10066;48.108;11.448;2023-01-24T15:16:02;2.30;99.90
19813;DHT22;10066;48.108;11.448;2023-01-24T15:18:45;2.30;99.90
19813;DHT22;10066;48.108;11.448;2023-01-24T15:21:26;2.20;99.90
19813;DHT22;10066;48.108;11.448;2023-01-24T15:23:54;2.20;99.90
19813;DHT22;10066;48.108;11.448;2023-01-24T15:28:51;2.10;99.90
19813;DHT22;10066;48.108;11.448;2023-01-24T15:33:55;2.10;99.90
19813;DHT22;10066;48.108;11.448;2023-01-24T15:36:26;2.10;99.90
19813;DHT22;10066;48.108;11.448;2023-01-24T15:38:55;2.10;99.90
19813;DHT22;10066;48.108;11.448;2023-01-24T15:41:23;2.00;99.90
19813;DHT22;10066;48.108;11.448;2023-01-24T15:44:11;2.00;99.90
19813;DHT22;10066;48.108;11.448;2023-01-24T15:46:39;2.00;99.90
19813;DHT22;10066;48.108;11.448;2023-01-24T15:49:27;2.00;99.90
19813;DHT22;10066;48.108;11.448;2023-01-24T15:52:11;2.00;99.90
19813;DHT22;10066;48.108;11.448;2023-01-24T15:54:40;2.00;99.90
19813;DHT22;10066;48.108;11.448;2023-01-24T15:57:17;2.00;99.90
19813;DHT22;10066;48.108;11.448;2023-01-24T15:59:46;2.00;99.90
19813;DHT22;10066;48.108;11.448;2023-01-24T16:02:14;2.00;99.90
19813;DHT22;10066;48.108;11.448;2023-01-24T16:04:41;2.00;99.90
19813;DHT22;10066;48.108;11.448;2023-01-24T16:07:09;2.00;99.90
19813;DHT22;10066;48.108;11.448;2023-01-24T16:09:36;2.00;99.90
19813;DHT22;10066;48.108;11.448;2023-01-24T16:12:04;2.10;99.90
19813;DHT22;10066;48.108;11.448;2023-01-24T16:14:31;2.10;99.90